Time;durP1;ratioP1;P1;durP2;ratioP2;P2;SDS_P1;SDS_P2;PMS_P1;PMS_P2;Temp;Humidity;BMP_temperature;BMP_pressure;BME280_temperature;BME280_humidity;BME280_pressure;Samples;Min_cycle;Max_cycle;Signal;HPM_P1;HPM_P2
2022/03/03 00:00:19;;;;;;;25.33;14.80;;;-1.00;99.90;;;;;;5016357;28;20120;-71
2022/03/03 00:02:46;;;;;;;26.20;14.32;;;-1.00;99.90;;;;;;5032209;28;20087;-71
2022/03/03 00:05:13;;;;;;;23.77;16.20;;;-1.00;99.90;;;;;;5033308;28;20072;-71
2022/03/03 00:07:45;;;;;;;25.73;16.60;;;-1.00;99.90;;;;;;5031772;28;20055;-71
2022/03/03 00:10:18;;;;;;;24.70;14.85;;;-1.10;99.90;;;;;;5048294;28;20041;-72
2022/03/03 00:12:50;;;;;;;25.92;15.48;;;-1.10;99.90;;;;;;5031888;28;20045;-70
2022/03/03 00:15:22;;;;;;;27.23;14.45;;;-1.20;99.90;;;;;;5033675;28;20132;-71
2022/03/03 00:17:53;;;;;;;28.73;16.77;;;-1.20;99.90;;;;;;5031680;28;20037;-71
2022/03/03 00:20:25;;;;;;;31.20;16.42;;;-1.30;99.90;;;;;;5015995;28;20139;-71
2022/03/03 00:22:57;;;;;;;33.95;17.42;;;-1.30;99.90;;;;;;5031980;28;20042;-70
2022/03/03 00:25:29;;;;;;;36.35;18.02;;;-1.30;99.90;;;;;;5015333;28;20042;-71
2022/03/03 00:27:56;;;;;;;31.83;16.75;;;-1.30;99.90;;;;;;5048357;28;20485;-71
2022/03/03 00:30:27;;;;;;;46.38;19.92;;;-1.30;99.90;;;;;;5015263;28;20049;-71
2022/03/03 00:32:59;;;;;;;38.28;20.38;;;-1.30;99.90;;;;;;5047197;28;20061;-71
2022/03/03 00:35:31;;;;;;;39.60;20.02;;;-1.30;99.90;;;;;;5033501;28;20128;-71
2022/03/03 00:38:03;;;;;;;39.17;17.90;;;-1.30;99.90;;;;;;5031585;28;20132;-71
2022/03/03 00:40:34;;;;;;;34.58;18.10;;;-1.30;99.90;;;;;;5031757;28;20069;-71
2022/03/03 00:43:06;;;;;;;31.90;18.55;;;-1.30;99.90;;;;;;5014966;28;20523;-70
2022/03/03 00:45:39;;;;;;;29.45;17.33;;;-1.30;99.90;;;;;;5015029;28;20048;-71
2022/03/03 00:48:10;;;;;;;33.95;19.90;;;-1.40;99.90;;;;;;5031670;28;20264;-71
2022/03/03 00:50:42;;;;;;;31.48;20.20;;;-1.50;99.90;;;;;;5031853;28;20140;-71
2022/03/03 00:53:14;;;;;;;29.90;18.13;;;-1.50;99.90;;;;;;5014790;28;20104;-72
2022/03/03 00:55:46;;;;;;;32.33;20.13;;;-1.60;99.90;;;;;;5032212;28;20045;-71
2022/03/03 00:58:18;;;;;;;34.75;19.38;;;-1.60;99.90;;;;;;5047187;28;20116;-71
2022/03/03 01:00:49;;;;;;;31.65;18.70;;;-1.70;99.90;;;;;;5047230;28;20140;-70
2022/03/03 01:03:21;;;;;;;35.72;18.67;;;-1.70;99.90;;;;;;5032073;28;20041;-70
2022/03/03 01:05:53;;;;;;;28.48;17.98;;;-1.70;99.90;;;;;;5014732;28;20046;-71
2022/03/03 01:08:25;;;;;;;33.78;19.73;;;-1.70;99.90;;;;;;5014927;28;20140;-71
2022/03/03 01:10:57;;;;;;;29.80;17.33;;;-1.70;99.90;;;;;;5030762;28;20099;-71
2022/03/03 01:13:24;;;;;;;30.63;18.15;;;-1.70;99.90;;;;;;5031015;28;20053;-71
2022/03/03 01:15:56;;;;;;;28.02;17.80;;;-1.70;99.90;;;;;;5031202;28;20128;-71
2022/03/03 01:18:27;;;;;;;44.25;20.33;;;-1.80;99.90;;;;;;5014162;28;20145;-71
2022/03/03 01:20:54;;;;;;;29.05;16.83;;;-1.80;99.90;;;;;;5030626;28;20611;-70
2022/03/03 01:23:26;;;;;;;27.95;18.30;;;-1.80;99.90;;;;;;5030776;28;20128;-71
2022/03/03 01:25:53;;;;;;;30.80;17.77;;;-1.80;99.90;;;;;;5030677;28;20076;-71
2022/03/03 01:28:25;;;;;;;30.52;18.02;;;-1.80;99.90;;;;;;5046494;28;20580;-71
2022/03/03 01:30:57;;;;;;;30.50;19.23;;;-1.80;99.90;;;;;;5031048;28;20076;-71
2022/03/03 01:33:28;;;;;;;33.97;18.05;;;-1.80;99.90;;;;;;5031888;28;20069;-71
2022/03/03 01:35:55;;;;;;;26.20;18.00;;;-1.80;99.90;;;;;;5032187;28;20382;-71
2022/03/03 01:38:22;;;;;;;26.95;17.67;;;-1.80;99.90;;;;;;5030047;28;20054;-71
2022/03/03 01:40:49;;;;;;;26.17;17.55;;;-1.80;99.90;;;;;;5047242;28;20068;-71
2022/03/03 01:43:15;;;;;;;27.83;18.10;;;-1.90;99.90;;;;;;5030818;28;20041;-71
2022/03/03 01:45:42;;;;;;;27.67;16.92;;;-1.90;99.90;;;;;;5030319;28;20096;-71
2022/03/03 01:48:09;;;;;;;30.17;17.42;;;-1.90;99.90;;;;;;5030467;28;20517;-71
2022/03/03 01:50:41;;;;;;;27.27;16.45;;;-1.90;99.90;;;;;;5014058;28;20076;-71
2022/03/03 01:53:13;;;;;;;30.92;17.17;;;-1.90;99.90;;;;;;5042131;28;20494;-71
2022/03/03 01:55:45;;;;;;;25.27;15.57;;;-1.90;99.90;;;;;;5050406;28;20499;-71
2022/03/03 01:58:12;;;;;;;29.67;17.75;;;-1.90;99.90;;;;;;5051608;28;20452;-71
2022/03/03 02:00:40;;;;;;;24.23;15.15;;;-2.00;99.90;;;;;;5050013;28;20524;-71
2022/03/03 02:03:06;;;;;;;31.67;16.90;;;-2.00;99.90;;;;;;5049244;28;20132;-71
2022/03/03 02:05:38;;;;;;;29.25;16.48;;;-2.00;99.90;;;;;;5049416;28;20059;-71
2022/03/03 02:08:10;;;;;;;27.63;15.95;;;-2.10;99.90;;;;;;5032855;28;20045;-71
2022/03/03 02:10:38;;;;;;;29.33;17.70;;;-2.10;99.90;;;;;;5033223;28;20110;-71
2022/03/03 02:13:06;;;;;;;28.90;16.67;;;-2.10;99.90;;;;;;5050416;28;20068;-71
2022/03/03 02:15:38;;;;;;;30.48;16.92;;;-2.10;99.90;;;;;;5033892;28;20098;-71
2022/03/03 02:18:10;;;;;;;31.58;18.27;;;-2.10;99.90;;;;;;5033431;28;20051;-71
2022/03/03 02:20:42;;;;;;;26.33;16.80;;;-2.10;99.90;;;;;;5050641;28;20144;-71
2022/03/03 02:23:14;;;;;;;35.33;18.55;;;-2.10;99.90;;;;;;5050274;28;20049;-71
2022/03/03 02:25:46;;;;;;;26.83;17.42;;;-2.10;99.90;;;;;;5050596;28;20507;-71
2022/03/03 02:28:13;;;;;;;29.00;17.20;;;-2.20;99.90;;;;;;5032715;28;20147;-71
2022/03/03 02:30:45;;;;;;;28.83;16.15;;;-2.20;99.90;;;;;;5050499;28;20041;-71
2022/03/03 02:33:17;;;;;;;31.55;17.20;;;-2.30;99.90;;;;;;5032586;28;20594;-71
2022/03/03 02:35:44;;;;;;;26.80;16.52;;;-2.30;99.90;;;;;;5049444;28;20141;-71
2022/03/03 02:38:15;;;;;;;29.17;16.60;;;-2.30;99.90;;;;;;5048969;28;20056;-71
2022/03/03 02:40:47;;;;;;;32.90;17.60;;;-2.30;99.90;;;;;;5049344;28;20465;-71
2022/03/03 02:43:14;;;;;;;28.58;16.17;;;-2.30;99.90;;;;;;5048905;28;20056;-71
2022/03/03 02:45:46;;;;;;;29.63;17.20;;;-2.40;99.90;;;;;;5050073;28;20079;-71
2022/03/03 02:48:13;;;;;;;26.17;15.40;;;-2.40;99.90;;;;;;5049057;28;20144;-71
2022/03/03 02:50:39;;;;;;;29.80;15.77;;;-2.40;99.90;;;;;;5049843;28;20041;-71
2022/03/03 02:53:11;;;;;;;28.70;17.08;;;-2.40;99.90;;;;;;5054130;28;20068;-71
2022/03/03 02:55:43;;;;;;;34.58;17.20;;;-2.40;99.90;;;;;;5052388;28;20139;-71
2022/03/03 02:58:15;;;;;;;26.25;16.58;;;-2.40;99.90;;;;;;5053906;28;20078;-71
2022/03/03 03:00:48;;;;;;;24.38;15.05;;;-2.40;99.90;;;;;;5053016;28;20068;-71
2022/03/03 03:03:20;;;;;;;28.92;16.83;;;-2.40;99.90;;;;;;5052677;28;20110;-71
2022/03/03 03:05:52;;;;;;;28.20;16.77;;;-2.40;99.90;;;;;;5036946;28;20587;-71
2022/03/03 03:08:24;;;;;;;32.15;15.95;;;-2.50;99.90;;;;;;5052725;28;20106;-71
2022/03/03 03:10:51;;;;;;;27.70;17.02;;;-2.50;99.90;;;;;;5036538;28;20139;-71
2022/03/03 03:13:22;;;;;;;28.42;15.93;;;-2.60;99.90;;;;;;5036740;28;20098;-71
2022/03/03 03:15:54;;;;;;;25.42;15.77;;;-2.60;99.90;;;;;;5037198;28;20153;-71
2022/03/03 03:18:26;;;;;;;25.95;16.10;;;-2.60;99.90;;;;;;5052235;28;20477;-71
2022/03/03 03:20:58;;;;;;;28.05;17.25;;;-2.70;99.90;;;;;;5052238;28;20076;-71
2022/03/03 03:23:29;;;;;;;27.70;16.80;;;-2.70;99.90;;;;;;5052149;28;20033;-71
2022/03/03 03:26:01;;;;;;;28.00;17.55;;;-2.70;99.90;;;;;;5053727;28;20127;-71
2022/03/03 03:28:28;;;;;;;26.17;15.90;;;-2.70;99.90;;;;;;5035746;28;20098;-71
2022/03/03 03:31:00;;;;;;;26.65;17.15;;;-2.70;99.90;;;;;;5052643;28;20080;-71
2022/03/03 03:33:32;;;;;;;25.90;15.70;;;-2.70;99.90;;;;;;5053205;28;20534;-71
2022/03/03 03:36:04;;;;;;;25.38;15.15;;;-2.70;99.90;;;;;;5054006;28;20135;-71
2022/03/03 03:38:35;;;;;;;28.67;16.88;;;-2.70;99.90;;;;;;5052149;28;20496;-71
2022/03/03 03:41:07;;;;;;;28.63;17.40;;;-2.70;99.90;;;;;;5053737;28;20036;-71
2022/03/03 03:43:34;;;;;;;29.08;16.50;;;-2.70;99.90;;;;;;5051153;28;20073;-71
2022/03/03 03:46:06;;;;;;;24.63;15.18;;;-2.70;99.90;;;;;;5053204;28;20123;-71
2022/03/03 03:48:37;;;;;;;29.17;16.65;;;-2.70;99.90;;;;;;5052428;28;20343;-71
2022/03/03 03:51:09;;;;;;;29.92;16.13;;;-2.70;99.90;;;;;;5053763;28;20041;-71
2022/03/03 03:53:41;;;;;;;26.90;15.68;;;-2.70;99.90;;;;;;5051921;28;20044;-71
2022/03/03 03:56:13;;;;;;;29.50;16.27;;;-2.80;99.90;;;;;;5052297;28;20463;-71
2022/03/03 03:58:45;;;;;;;28.30;16.88;;;-2.80;99.90;;;;;;5051726;28;20147;-71
2022/03/03 04:01:17;;;;;;;28.17;16.35;;;-2.80;99.90;;;;;;5053161;28;20326;-71
2022/03/03 04:03:49;;;;;;;32.95;18.30;;;-2.80;99.90;;;;;;5051284;28;20065;-71
2022/03/03 04:06:20;;;;;;;29.67;17.63;;;-2.80;99.90;;;;;;5051440;28;20123;-71
2022/03/03 04:08:52;;;;;;;30.00;16.92;;;-2.80;99.90;;;;;;5051112;28;20139;-71
2022/03/03 04:11:19;;;;;;;30.42;17.80;;;-2.80;99.90;;;;;;5051931;28;20045;-71
2022/03/03 04:13:51;;;;;;;41.33;22.98;;;-2.80;99.90;;;;;;5052430;28;20503;-71
2022/03/03 04:16:24;;;;;;;34.35;18.85;;;-2.80;99.90;;;;;;5051512;28;20041;-71
2022/03/03 04:18:51;;;;;;;30.00;17.88;;;-2.90;99.90;;;;;;5051841;28;20526;-71
2022/03/03 04:21:23;;;;;;;31.38;18.50;;;-2.90;99.90;;;;;;5052140;28;20083;-71
2022/03/03 04:23:49;;;;;;;38.28;20.42;;;-2.90;99.90;;;;;;5035006;28;20049;-71
2022/03/03 04:26:21;;;;;;;39.35;22.42;;;-2.90;99.90;;;;;;5053049;28;20470;-71
2022/03/03 04:28:48;;;;;;;37.28;20.10;;;-3.00;99.90;;;;;;5035508;28;20094;-72
2022/03/03 04:31:15;;;;;;;33.97;18.80;;;-3.00;99.90;;;;;;5051786;28;20041;-70
2022/03/03 04:33:47;;;;;;;34.95;20.23;;;-3.00;99.90;;;;;;5052452;28;20045;-71
2022/03/03 04:36:14;;;;;;;34.35;17.70;;;-3.00;99.90;;;;;;5051820;28;20041;-70
2022/03/03 04:38:47;;;;;;;31.30;17.80;;;-3.10;99.90;;;;;;5035683;28;20139;-70
2022/03/03 04:41:20;;;;;;;32.25;16.55;;;-3.10;99.90;;;;;;5051732;28;20049;-71
2022/03/03 04:43:47;;;;;;;28.13;16.85;;;-3.10;99.90;;;;;;5051421;28;20041;-71
2022/03/03 04:46:14;;;;;;;34.95;17.10;;;-3.10;99.90;;;;;;5034982;28;20045;-71
2022/03/03 04:48:45;;;;;;;31.48;17.98;;;-3.20;99.90;;;;;;5035967;28;20411;-71
2022/03/03 04:51:17;;;;;;;30.90;18.73;;;-3.20;99.90;;;;;;5052702;28;20037;-71
2022/03/03 04:53:49;;;;;;;28.95;18.40;;;-3.20;99.90;;;;;;5051811;28;20087;-71
2022/03/03 04:56:21;;;;;;;29.90;17.17;;;-3.20;99.90;;;;;;5051483;28;20102;-70
2022/03/03 04:58:53;;;;;;;33.67;18.75;;;-3.20;99.90;;;;;;5050614;28;20424;-71
2022/03/03 05:01:24;;;;;;;25.17;16.23;;;-3.30;99.90;;;;;;5052033;28;20033;-71
2022/03/03 05:03:56;;;;;;;29.65;17.08;;;-3.30;99.90;;;;;;5051444;28;20147;-72
2022/03/03 05:06:28;;;;;;;29.77;18.60;;;-3.30;99.90;;;;;;5046082;28;20173;-71
2022/03/03 05:09:00;;;;;;;31.30;19.25;;;-3.40;99.90;;;;;;5052945;28;20512;-71
2022/03/03 05:11:26;;;;;;;34.72;19.98;;;-3.40;99.90;;;;;;5050167;28;20067;-71
2022/03/03 05:13:53;;;;;;;32.35;19.30;;;-3.50;99.90;;;;;;5021953;28;20077;-71
2022/03/03 05:16:20;;;;;;;32.13;19.20;;;-3.50;99.90;;;;;;5039586;28;20052;-71
2022/03/03 05:18:52;;;;;;;31.85;18.40;;;-3.50;99.90;;;;;;5045367;28;20043;-71
2022/03/03 05:21:19;;;;;;;30.67;18.10;;;-3.50;99.90;;;;;;5049636;28;20123;-71
2022/03/03 05:23:46;;;;;;;32.88;17.98;;;-3.50;99.90;;;;;;5033676;28;20139;-71
2022/03/03 05:26:13;;;;;;;33.88;19.10;;;-3.40;99.90;;;;;;5027987;28;20079;-71
2022/03/03 05:28:45;;;;;;;31.20;18.23;;;-3.40;99.90;;;;;;5056928;28;20394;-71
2022/03/03 05:31:17;;;;;;;33.20;19.33;;;-3.50;99.90;;;;;;5048030;28;20291;-71
2022/03/03 05:33:49;;;;;;;29.10;16.58;;;-3.50;99.90;;;;;;5050217;28;20072;-71
2022/03/03 05:36:23;;;;;;;27.00;16.25;;;-3.50;99.90;;;;;;5036094;28;20515;-71
2022/03/03 05:38:57;;;;;;;30.20;16.85;;;-3.50;99.90;;;;;;5033314;28;20068;-71
2022/03/03 05:41:24;;;;;;;26.45;14.68;;;-3.50;99.90;;;;;;5060385;28;20041;-71
2022/03/03 05:43:58;;;;;;;26.85;15.95;;;-3.60;99.90;;;;;;5049704;28;20044;-70
2022/03/03 05:46:25;;;;;;;28.90;16.27;;;-3.60;99.90;;;;;;5032945;28;20381;-71
2022/03/03 05:48:52;;;;;;;27.45;15.98;;;-3.60;99.90;;;;;;5038721;28;20075;-71
2022/03/03 05:51:20;;;;;;;27.27;16.17;;;-3.60;99.90;;;;;;5032497;28;20155;-71
2022/03/03 05:53:51;;;;;;;28.00;15.35;;;-3.60;99.90;;;;;;5050831;28;20045;-71
2022/03/03 05:56:23;;;;;;;30.25;16.02;;;-3.70;99.90;;;;;;5033918;28;20462;-71
2022/03/03 05:59:01;;;;;;;27.90;16.38;;;-3.70;99.90;;;;;;5062809;28;20114;-70
2022/03/03 06:01:39;;;;;;;32.33;17.73;;;-3.60;99.90;;;;;;5039267;28;20064;-71
2022/03/03 06:04:17;;;;;;;30.95;18.10;;;-3.60;99.90;;;;;;5022325;28;20235;-71
2022/03/03 06:06:53;;;;;;;34.72;19.02;;;-3.60;99.90;;;;;;5049089;28;20657;-72
2022/03/03 06:09:32;;;;;;;85.30;37.17;;;-3.50;99.90;;;;;;5028336;28;20119;-72
2022/03/03 06:12:13;;;;;;;95.88;44.75;;;-3.50;99.90;;;;;;5034742;28;20068;-72
2022/03/03 06:14:47;;;;;;;67.47;34.85;;;-3.50;99.90;;;;;;5031051;28;20077;-72
2022/03/03 06:17:24;;;;;;;54.95;30.73;;;-3.50;99.90;;;;;;5018513;28;20148;-71
2022/03/03 06:20:00;;;;;;;36.90;20.33;;;-3.40;99.90;;;;;;5037639;28;20064;-72
2022/03/03 06:22:26;;;;;;;38.92;21.13;;;-3.50;99.90;;;;;;5031451;28;20041;-72
2022/03/03 06:24:53;;;;;;;34.67;18.90;;;-3.50;99.90;;;;;;5051122;28;20135;-72
2022/03/03 06:27:20;;;;;;;33.30;20.10;;;-3.50;99.90;;;;;;5036235;28;20065;-72
2022/03/03 06:29:54;;;;;;;44.47;21.88;;;-3.60;99.90;;;;;;5046543;28;20052;-72
2022/03/03 06:32:26;;;;;;;47.95;24.65;;;-3.50;99.90;;;;;;5038205;28;20044;-71
2022/03/03 06:34:58;;;;;;;41.65;23.52;;;-3.60;99.90;;;;;;5039361;28;20519;-72
2022/03/03 06:37:24;;;;;;;46.53;26.17;;;-3.60;99.90;;;;;;5036324;28;20105;-72
2022/03/03 06:39:56;;;;;;;44.97;26.38;;;-3.60;99.90;;;;;;5046178;28;20049;-71
2022/03/03 06:42:23;;;;;;;42.33;25.77;;;-3.60;99.90;;;;;;5049067;28;20127;-71
2022/03/03 06:44:50;;;;;;;41.08;23.58;;;-3.60;99.90;;;;;;5019964;28;20049;-72
2022/03/03 06:47:17;;;;;;;37.45;23.42;;;-3.50;99.90;;;;;;5031406;28;20037;-71
2022/03/03 06:49:49;;;;;;;46.67;27.80;;;-3.50;99.90;;;;;;5019347;28;20504;-71
2022/03/03 06:52:25;;;;;;;50.00;26.02;;;-3.40;99.90;;;;;;5051399;28;20767;-71
2022/03/03 06:54:59;;;;;;;39.90;22.95;;;-3.40;99.90;;;;;;5049529;28;20123;-72
2022/03/03 06:57:29;;;;;;;43.85;23.60;;;-3.40;99.90;;;;;;5049069;28;20033;-72
2022/03/03 07:00:01;;;;;;;32.88;19.20;;;-3.30;99.90;;;;;;5030425;28;20124;-72
2022/03/03 07:02:33;;;;;;;33.40;19.08;;;-3.30;99.90;;;;;;5012305;28;20457;-71
2022/03/03 07:05:06;;;;;;;35.47;21.40;;;-3.30;99.90;;;;;;5047747;28;20500;-71
2022/03/03 07:07:40;;;;;;;81.30;44.80;;;-3.20;99.90;;;;;;5040506;28;20065;-71
2022/03/03 07:10:13;;;;;;;89.53;51.30;;;-3.10;99.90;;;;;;5049366;28;20045;-71
2022/03/03 07:12:45;;;;;;;63.90;33.53;;;-3.10;99.90;;;;;;5024995;28;20055;-71
2022/03/03 07:15:12;;;;;;;52.80;30.77;;;-3.10;99.90;;;;;;5019337;28;20084;-71
2022/03/03 07:17:56;;;;;;;67.97;37.08;;;-3.10;99.90;;;;;;5033595;28;20051;-71
2022/03/03 07:20:37;;;;;;;58.30;34.63;;;-3.00;99.90;;;;;;5038636;28;20116;-72
2022/03/03 07:23:29;;;;;;;56.83;31.08;;;-2.90;99.90;;;;;;5014670;28;20040;-72
2022/03/03 07:26:03;;;;;;;50.85;29.33;;;-2.90;99.90;;;;;;5060662;28;20065;-72
2022/03/03 07:28:38;;;;;;;;;;;-2.80;99.90;;;;;;5049445;28;20120;-71
2022/03/03 07:31:06;;;;;;;53.38;26.02;;;-2.80;99.90;;;;;;5081017;28;20007;-72
2022/03/03 07:34:06;;;;;;;45.25;26.20;;;-2.70;99.90;;;;;;5032709;28;20071;-71
2022/03/03 07:36:40;;;;;;;36.50;19.63;;;-2.60;99.90;;;;;;5025767;28;20055;-71
2022/03/03 07:39:11;;;;;;;32.72;19.85;;;-2.50;99.90;;;;;;5055377;28;20037;-71
2022/03/03 07:41:45;;;;;;;37.55;20.23;;;-2.40;99.90;;;;;;5023424;28;20458;-71
2022/03/03 07:44:20;;;;;;;40.83;21.95;;;-2.30;99.90;;;;;;5017726;28;20119;-71
2022/03/03 07:46:47;;;;;;;38.30;21.02;;;-2.20;99.90;;;;;;5039532;28;20049;-71
2022/03/03 07:49:16;;;;;;;34.50;21.20;;;-2.10;99.90;;;;;;5062460;28;20127;-71
2022/03/03 07:51:51;;;;;;;46.78;26.33;;;-2.00;99.90;;;;;;5055355;28;20055;-71
2022/03/03 07:54:23;;;;;;;44.17;25.95;;;-1.80;99.90;;;;;;5037759;28;20532;-71
2022/03/03 07:56:57;;;;;;;39.42;24.30;;;-1.80;99.90;;;;;;5025961;28;20045;-72
2022/03/03 07:59:32;;;;;;;38.60;24.05;;;-1.70;99.90;;;;;;5037354;28;20068;-72
2022/03/03 08:02:03;;;;;;;37.70;23.17;;;-1.60;99.90;;;;;;5054859;28;20071;-71
2022/03/03 08:04:32;;;;;;;35.85;21.48;;;-1.50;99.90;;;;;;5029234;28;20098;-71
2022/03/03 08:07:06;;;;;;;37.22;21.88;;;-1.50;99.90;;;;;;5037576;28;20094;-71
2022/03/03 08:09:40;;;;;;;37.75;22.30;;;-1.40;99.90;;;;;;5038339;28;20552;-71
2022/03/03 08:12:15;;;;;;;35.78;23.52;;;-1.30;99.90;;;;;;5035452;28;20041;-71
2022/03/03 08:14:47;;;;;;;42.25;24.77;;;-1.30;99.90;;;;;;5059301;28;20100;-71
2022/03/03 08:17:20;;;;;;;48.92;27.70;;;-1.20;99.90;;;;;;5035203;28;20064;-71
2022/03/03 08:19:56;;;;;;;48.45;26.35;;;-1.10;99.90;;;;;;5035701;28;20052;-71
2022/03/03 08:22:24;;;;;;;89.38;40.28;;;-1.00;99.90;;;;;;5051980;28;20039;-71
2022/03/03 08:24:57;;;;;;;36.17;21.42;;;-0.90;99.90;;;;;;5029838;28;20045;-72
2022/03/03 08:27:27;;;;;;;32.22;20.48;;;-0.80;99.90;;;;;;5036096;28;20723;-71
2022/03/03 08:30:00;;;;;;;28.23;18.60;;;-0.80;99.90;;;;;;5051221;28;20049;-71
2022/03/03 08:32:34;;;;;;;30.67;18.88;;;-0.70;99.90;;;;;;5061351;28;20063;-71
2022/03/03 08:35:21;;;;;;;;;;;-0.60;99.90;;;;;;5041368;28;21300;-71
2022/03/03 08:38:04;;;;;;;32.28;18.83;;;-0.50;99.90;;;;;;5046652;28;19989;-71
2022/03/03 08:40:37;;;;;;;31.48;19.85;;;-0.40;99.90;;;;;;5044904;28;20450;-71
2022/03/03 08:43:06;;;;;;;33.05;20.83;;;-0.30;99.90;;;;;;5042854;28;20037;-71
2022/03/03 08:45:34;;;;;;;32.85;19.83;;;-0.20;99.90;;;;;;5051375;28;20037;-71
2022/03/03 08:48:12;;;;;;;30.85;19.55;;;0.00;99.90;;;;;;5040347;28;20045;-71
2022/03/03 08:50:41;;;;;;;30.83;18.20;;;0.10;99.90;;;;;;5042928;28;20041;-71
2022/03/03 08:53:13;;;;;;;30.90;18.60;;;0.30;99.90;;;;;;5033221;28;20060;-72
2022/03/03 08:55:45;;;;;;;28.98;18.63;;;0.50;99.90;;;;;;5054498;28;20037;-71
2022/03/03 08:58:14;;;;;;;29.25;19.15;;;0.60;99.90;;;;;;5046295;28;20067;-71
2022/03/03 09:00:48;;;;;;;;;;;0.70;99.90;;;;;;5051414;28;20407;-71
2022/03/03 09:03:22;;;;;;;29.75;17.85;;;0.90;99.90;;;;;;5034189;28;20011;-71
2022/03/03 09:05:49;;;;;;;26.92;18.25;;;1.00;99.90;;;;;;5051536;28;20098;-71
2022/03/03 09:08:17;;;;;;;28.92;18.67;;;1.20;99.90;;;;;;5032908;28;20132;-71
2022/03/03 09:10:50;;;;;;;36.38;18.52;;;1.20;99.90;;;;;;5028671;28;20065;-71
2022/03/03 09:13:21;;;;;;;31.48;19.38;;;1.40;99.90;;;;;;5051488;28;20044;-71
2022/03/03 09:15:48;;;;;;;32.13;20.55;;;1.50;99.90;;;;;;5042589;28;20041;-71
2022/03/03 09:18:15;;;;;;;32.50;20.60;;;1.60;99.90;;;;;;5034801;28;20081;-71
2022/03/03 09:20:43;;;;;;;27.77;18.85;;;1.70;99.90;;;;;;5050408;28;20041;-71
2022/03/03 09:23:16;;;;;;;35.42;19.67;;;1.80;99.90;;;;;;5053935;28;20127;-72
2022/03/03 09:25:43;;;;;;;29.95;19.60;;;1.90;99.90;;;;;;5053008;28;20489;-71
2022/03/03 09:28:10;;;;;;;28.50;19.55;;;2.00;99.90;;;;;;5022273;28;20049;-71
2022/03/03 09:30:42;;;;;;;30.80;18.73;;;2.10;99.90;;;;;;5045760;28;20055;-71
2022/03/03 09:33:14;;;;;;;27.92;19.27;;;2.10;99.90;;;;;;5031418;28;20055;-71
2022/03/03 09:35:46;;;;;;;32.60;19.80;;;2.30;99.90;;;;;;5051240;28;20051;-71
2022/03/03 09:38:12;;;;;;;26.55;18.23;;;2.40;99.90;;;;;;5061821;28;20782;-71
2022/03/03 09:40:45;;;;;;;28.52;18.55;;;2.50;99.90;;;;;;5066412;28;20040;-71
2022/03/03 09:43:12;;;;;;;31.25;18.90;;;2.60;99.90;;;;;;5042316;28;20040;-71
2022/03/03 09:45:44;;;;;;;30.42;19.90;;;2.70;99.90;;;;;;5034268;28;20651;-71
2022/03/03 09:48:16;;;;;;;31.10;18.75;;;2.80;99.90;;;;;;5049070;28;20037;-71
2022/03/03 09:50:48;;;;;;;27.70;18.55;;;2.90;99.90;;;;;;5037727;28;20060;-71
2022/03/03 09:53:17;;;;;;;29.30;17.65;;;3.00;99.90;;;;;;5039205;28;20087;-71
2022/03/03 09:55:49;;;;;;;25.67;18.88;;;3.10;99.90;;;;;;5034504;28;20045;-72
2022/03/03 09:58:21;;;;;;;26.05;17.23;;;3.20;99.90;;;;;;5033828;28;20056;-71
2022/03/03 10:00:48;;;;;;;26.75;17.40;;;3.30;99.90;;;;;;5066444;28;20055;-71
2022/03/03 10:03:20;;;;;;;25.58;17.02;;;3.50;99.90;;;;;;5051612;28;20049;-71
2022/03/03 10:05:53;;;;;;;26.67;16.00;;;3.60;99.90;;;;;;5054589;28;20442;-71
2022/03/03 10:08:26;;;;;;;29.23;16.83;;;3.70;99.90;;;;;;5041839;28;20033;-73
2022/03/03 10:11:01;;;;;;;24.55;15.52;;;3.80;99.90;;;;;;5048738;28;20049;-71
2022/03/03 10:13:51;;;;;;;23.80;16.55;;;3.90;99.90;;;;;;5038148;28;20037;-71
2022/03/03 10:16:29;;;;;;;25.10;17.10;;;4.00;99.90;;;;;;5059844;28;20041;-71
2022/03/03 10:19:03;;;;;;;25.20;15.95;;;4.20;99.90;;;;;;5056271;28;20045;-71
2022/03/03 10:21:38;;;;;;;25.65;16.85;;;4.30;99.90;;;;;;5026063;28;20041;-71
2022/03/03 10:24:22;;;;;;;27.35;17.45;;;4.40;99.90;;;;;;5034274;28;20037;-72
2022/03/03 10:27:04;;;;;;;26.67;17.25;;;4.60;99.90;;;;;;5035119;28;20049;-71
2022/03/03 10:29:32;;;;;;;24.95;16.67;;;4.70;99.90;;;;;;5038506;28;20044;-71
2022/03/03 10:31:59;;;;;;;23.90;16.55;;;4.70;99.90;;;;;;5034311;28;20052;-71
2022/03/03 10:34:27;;;;;;;25.23;16.70;;;4.90;99.90;;;;;;5049082;28;20044;-71
2022/03/03 10:37:01;;;;;;;24.93;16.60;;;4.90;99.90;;;;;;5036685;28;20051;-71
2022/03/03 10:39:43;;;;;;;20.15;15.15;;;5.10;99.90;;;;;;5040126;28;20040;-71
2022/03/03 10:42:20;;;;;;;23.95;14.80;;;5.10;99.90;;;;;;5042165;28;20048;-71
2022/03/03 10:45:07;;;;;;;22.85;15.85;;;5.20;99.90;;;;;;5041880;28;20037;-74
2022/03/03 10:47:35;;;;;;;26.20;15.32;;;5.30;99.90;;;;;;5035550;28;20053;-74
2022/03/03 10:50:07;;;;;;;20.38;13.50;;;5.40;99.90;;;;;;5050277;28;20489;-74
2022/03/03 10:52:40;;;;;;;19.38;13.20;;;5.40;99.90;;;;;;5019102;28;20489;-74
2022/03/03 10:55:20;;;;;;;25.55;16.02;;;5.60;99.90;;;;;;5051155;28;20515;-71
2022/03/03 10:58:01;;;;;;;18.02;13.68;;;5.70;99.90;;;;;;5044906;28;20060;-72
2022/03/03 11:00:39;;;;;;;21.55;13.52;;;5.80;99.90;;;;;;5022138;28;20037;-72
2022/03/03 11:03:18;;;;;;;20.85;14.32;;;5.90;99.90;;;;;;5022946;28;20086;-72
2022/03/03 11:05:50;;;;;;;17.08;12.50;;;6.00;99.90;;;;;;5038944;28;20041;-71
2022/03/03 11:08:18;;;;;;;19.20;14.00;;;6.00;99.90;;;;;;5026100;28;20492;-72
2022/03/03 11:10:49;;;;;;;16.00;12.20;;;6.10;99.90;;;;;;5021826;28;20049;-72
2022/03/03 11:13:17;;;;;;;19.98;12.95;;;6.20;99.90;;;;;;5050853;28;20127;-72
2022/03/03 11:15:49;;;;;;;18.17;13.00;;;6.30;99.90;;;;;;5030799;28;20053;-72
2022/03/03 11:18:18;;;;;;;16.75;12.48;;;6.40;99.90;;;;;;5035548;28;20083;-72
2022/03/03 11:20:51;;;;;;;18.45;12.50;;;6.50;99.90;;;;;;5037083;28;20739;-72
2022/03/03 11:23:23;;;;;;;15.77;12.43;;;6.50;99.90;;;;;;5034698;28;20061;-72
2022/03/03 11:25:51;;;;;;;20.05;13.55;;;6.60;99.90;;;;;;5053364;28;20064;-72
2022/03/03 11:28:33;;;;;;;19.20;13.00;;;6.70;99.00;;;;;;5035742;28;20064;-72
2022/03/03 11:31:26;;;;;;;16.90;11.65;;;6.80;97.80;;;;;;5052705;28;20120;-72
2022/03/03 11:34:22;;;;;;;17.85;12.02;;;6.80;98.70;;;;;;5034627;28;20043;-72
2022/03/03 11:37:07;;;;;;;15.75;11.75;;;7.00;99.10;;;;;;5048478;28;20055;-72
2022/03/03 11:39:59;;;;;;;34.80;14.35;;;7.10;98.90;;;;;;5046588;28;20043;-72
2022/03/03 11:42:34;;;;;;;18.65;13.52;;;7.20;98.60;;;;;;5043129;28;20102;-72
2022/03/03 11:45:18;;;;;;;19.58;13.25;;;7.20;97.40;;;;;;5025483;28;20072;-72
2022/03/03 11:48:12;;;;;;;18.77;13.27;;;7.30;96.70;;;;;;5031009;28;20052;-72
2022/03/03 11:50:44;;;;;;;17.90;13.30;;;7.30;96.40;;;;;;5047266;28;20045;-72
2022/03/03 11:53:19;;;;;;;22.10;14.48;;;7.40;95.30;;;;;;5048563;28;20542;-72
2022/03/03 11:56:03;;;;;;;18.35;13.40;;;7.50;95.30;;;;;;5029510;28;20059;-72
2022/03/03 11:58:41;;;;;;;20.92;13.77;;;7.60;94.80;;;;;;5032124;28;20044;-72
2022/03/03 12:01:14;;;;;;;22.63;14.55;;;7.70;94.30;;;;;;5067130;28;20033;-72
2022/03/03 12:04:16;;;;;;;24.38;15.75;;;7.80;94.00;;;;;;5051942;28;20124;-72
2022/03/03 12:06:48;;;;;;;21.45;15.30;;;7.90;93.10;;;;;;5029891;28;20052;-71
2022/03/03 12:09:30;;;;;;;20.58;14.23;;;8.00;93.20;;;;;;5057699;28;20072;-71
2022/03/03 12:12:07;;;;;;;19.40;13.75;;;8.00;93.00;;;;;;5055960;28;20136;-72
2022/03/03 12:14:48;;;;;;;21.90;14.65;;;8.10;92.80;;;;;;5021912;28;20510;-72
2022/03/03 12:17:43;;;;;;;19.80;13.68;;;8.20;93.00;;;;;;5020275;28;20048;-72
2022/03/03 12:20:24;;;;;;;18.98;13.00;;;8.40;93.00;;;;;;5033641;28;20041;-72
2022/03/03 12:23:07;;;;;;;27.17;14.52;;;8.50;93.00;;;;;;5049360;28;20147;-72
2022/03/03 12:25:54;;;;;;;17.77;13.27;;;8.60;92.00;;;;;;5033296;28;20087;-72
2022/03/03 12:28:35;;;;;;;22.52;15.65;;;8.60;91.20;;;;;;5046101;28;20041;-72
2022/03/03 12:31:21;;;;;;;20.73;14.02;;;8.70;91.10;;;;;;5031525;28;20511;-72
2022/03/03 12:34:01;;;;;;;19.52;13.45;;;8.70;91.20;;;;;;5033945;28;20562;-71
2022/03/03 12:36:36;;;;;;;19.60;13.98;;;8.80;91.50;;;;;;5014028;28;20049;-70
2022/03/03 12:39:05;;;;;;;24.23;14.13;;;8.90;90.30;;;;;;5031454;28;20044;-70
2022/03/03 12:41:34;;;;;;;23.17;15.82;;;8.90;86.40;;;;;;5015657;28;20053;-71
2022/03/03 12:44:13;;;;;;;19.48;14.10;;;9.00;88.00;;;;;;5030163;28;20397;-71
2022/03/03 12:46:43;;;;;;;15.35;11.95;;;9.10;81.70;;;;;;5025717;28;20076;-72
2022/03/03 12:49:13;;;;;;;19.92;13.02;;;9.10;77.70;;;;;;5019028;28;20041;-71
2022/03/03 12:51:45;;;;;;;61.42;28.65;;;9.20;78.20;;;;;;5034935;28;20571;-71
2022/03/03 12:54:20;;;;;;;62.28;39.17;;;9.30;76.60;;;;;;5033610;28;20065;-71
2022/03/03 12:56:59;;;;;;;53.30;32.42;;;9.40;73.80;;;;;;5035589;28;20041;-71